Time;durP1;ratioP1;P1;durP2;ratioP2;P2;SDS_P1;SDS_P2;PMS_P1;PMS_P2;Temp;Humidity;BMP_temperature;BMP_pressure;BME280_temperature;BME280_humidity;BME280_pressure;Samples;Min_cycle;Max_cycle;Signal;HPM_P1;HPM_P2
2023/10/08 00:02:09;;;;;;;1.30;0.80;;;13.00;99.90;;;;;;5024651;28;20211;-65
2023/10/08 00:04:37;;;;;;;1.40;0.80;;;13.00;99.90;;;;;;5024987;28;20255;-65
2023/10/08 00:07:07;;;;;;;1.13;0.60;;;12.80;99.90;;;;;;5024948;28;20612;-66
2023/10/08 00:09:36;;;;;;;0.67;0.67;;;12.90;99.90;;;;;;5025219;28;20232;-65
2023/10/08 00:12:04;;;;;;;3.13;0.97;;;13.00;99.90;;;;;;5014157;28;20206;-65
2023/10/08 00:14:32;;;;;;;0.90;0.90;;;12.80;99.90;;;;;;5011886;28;20295;-66
2023/10/08 00:17:00;;;;;;;1.67;0.80;;;12.80;99.90;;;;;;5012232;28;20209;-65
2023/10/08 00:19:33;;;;;;;0.77;0.77;;;12.80;99.90;;;;;;5011671;28;20243;-66
2023/10/08 00:22:05;;;;;;;1.90;0.97;;;12.70;99.90;;;;;;5025536;28;20638;-66
2023/10/08 00:24:33;;;;;;;2.10;0.97;;;12.70;99.90;;;;;;5031808;28;20203;-65
2023/10/08 00:27:03;;;;;;;1.17;1.03;;;12.80;99.90;;;;;;5014837;28;20804;-66
2023/10/08 00:29:31;;;;;;;1.30;1.20;;;12.80;99.90;;;;;;5022175;28;20882;-65
2023/10/08 00:31:58;;;;;;;1.97;1.00;;;12.80;99.90;;;;;;5029460;28;20730;-66
2023/10/08 00:34:27;;;;;;;2.33;1.43;;;12.90;99.90;;;;;;5030996;28;20209;-65
2023/10/08 00:36:53;;;;;;;2.17;1.20;;;13.00;99.90;;;;;;5030910;28;20516;-65
2023/10/08 00:39:23;;;;;;;3.30;1.73;;;13.10;99.90;;;;;;5031077;28;20775;-66
2023/10/08 00:41:54;;;;;;;2.67;1.40;;;13.10;99.90;;;;;;5026294;28;20209;-65
2023/10/08 00:44:29;;;;;;;2.27;1.60;;;13.10;99.90;;;;;;5011499;28;20194;-66
2023/10/08 00:47:00;;;;;;;1.57;1.07;;;13.00;99.90;;;;;;5011568;28;20540;-66
2023/10/08 00:49:47;;;;;;;1.40;1.30;;;13.10;99.90;;;;;;5028952;28;20295;-65
2023/10/08 00:52:29;;;;;;;2.20;1.50;;;13.10;99.90;;;;;;5031057;28;20323;-65
2023/10/08 00:55:08;;;;;;;3.17;1.30;;;13.20;99.90;;;;;;5024984;28;20288;-66
2023/10/08 00:57:37;;;;;;;2.70;1.40;;;13.20;99.90;;;;;;5028034;28;20208;-65
2023/10/08 01:00:15;;;;;;;1.87;1.33;;;13.10;99.90;;;;;;5030624;28;20367;-65
2023/10/08 01:02:49;;;;;;;2.63;1.40;;;13.20;99.90;;;;;;5030646;28;20200;-66
2023/10/08 01:05:18;;;;;;;2.20;1.40;;;13.20;99.90;;;;;;5030461;28;20189;-66
2023/10/08 01:07:50;;;;;;;2.53;1.57;;;13.30;99.90;;;;;;5031169;28;20251;-66
2023/10/08 01:10:20;;;;;;;3.03;1.60;;;13.30;99.90;;;;;;5031167;28;20643;-65
2023/10/08 01:13:03;;;;;;;1.90;1.80;;;13.20;99.90;;;;;;5031028;28;20205;-65
2023/10/08 01:15:35;;;;;;;2.83;1.50;;;13.10;99.90;;;;;;5030391;28;20188;-65
2023/10/08 01:18:04;;;;;;;2.93;1.80;;;13.10;99.90;;;;;;5030731;28;20197;-66
2023/10/08 01:20:34;;;;;;;3.13;1.80;;;13.10;99.90;;;;;;5029426;28;20231;-66
2023/10/08 01:23:08;;;;;;;4.80;2.00;;;13.00;99.90;;;;;;5029843;28;20991;-65
2023/10/08 01:25:35;;;;;;;3.57;1.73;;;13.00;99.90;;;;;;5023184;28;20300;-66
2023/10/08 01:28:08;;;;;;;2.93;1.90;;;13.10;99.90;;;;;;5008538;28;20297;-65
2023/10/08 01:30:36;;;;;;;4.00;1.90;;;13.10;99.90;;;;;;5027109;28;20244;-66
2023/10/08 01:33:03;;;;;;;3.03;1.87;;;13.10;99.90;;;;;;5027250;28;20929;-66
2023/10/08 01:35:31;;;;;;;4.30;2.37;;;13.10;99.90;;;;;;5027542;28;20713;-65
2023/10/08 01:38:00;;;;;;;7.17;2.40;;;13.20;99.90;;;;;;5027428;28;20204;-66
2023/10/08 01:40:29;;;;;;;2.77;1.90;;;13.20;99.90;;;;;;5026974;28;20231;-66
2023/10/08 01:43:00;;;;;;;3.03;2.10;;;13.10;99.90;;;;;;5027255;28;20212;-66
2023/10/08 01:45:29;;;;;;;3.57;1.90;;;12.90;99.90;;;;;;5027149;28;20212;-66
2023/10/08 01:47:57;;;;;;;3.00;2.00;;;12.90;99.90;;;;;;5027001;28;20212;-66
2023/10/08 01:50:25;;;;;;;4.03;2.30;;;12.80;99.90;;;;;;5026671;28;20205;-66
2023/10/08 01:52:53;;;;;;;4.77;2.60;;;12.70;99.90;;;;;;5026561;28;20972;-66
2023/10/08 01:55:19;;;;;;;4.30;2.70;;;12.70;99.90;;;;;;5009999;28;20209;-66
2023/10/08 01:57:49;;;;;;;5.67;2.20;;;12.70;99.90;;;;;;5026914;28;20201;-66
2023/10/08 02:00:19;;;;;;;6.63;2.60;;;12.70;99.90;;;;;;5026996;28;20343;-66
2023/10/08 02:02:46;;;;;;;4.20;2.53;;;12.60;99.90;;;;;;5027150;28;20282;-66
2023/10/08 02:05:14;;;;;;;6.30;2.63;;;12.70;99.90;;;;;;5027309;28;20251;-66
2023/10/08 02:07:42;;;;;;;3.37;2.17;;;12.80;99.90;;;;;;5027115;28;20217;-66
2023/10/08 02:10:10;;;;;;;6.40;2.50;;;12.80;99.90;;;;;;5027701;28;20237;-66
2023/10/08 02:12:37;;;;;;;5.07;2.50;;;12.70;99.90;;;;;;5027410;28;20872;-66
2023/10/08 02:15:07;;;;;;;3.93;2.20;;;12.70;99.90;;;;;;5020691;28;20301;-65
2023/10/08 02:17:34;;;;;;;4.33;2.90;;;12.60;99.90;;;;;;5026851;28;20677;-66
2023/10/08 02:20:04;;;;;;;3.30;2.10;;;12.70;99.90;;;;;;5026342;28;20327;-66
2023/10/08 02:22:32;;;;;;;4.23;2.13;;;12.70;99.90;;;;;;5026720;28;21032;-64
2023/10/08 02:25:01;;;;;;;4.43;2.53;;;12.80;99.90;;;;;;5026275;28;20232;-64
2023/10/08 02:27:28;;;;;;;6.47;2.17;;;12.80;99.90;;;;;;5025157;28;20292;-64
2023/10/08 02:29:55;;;;;;;2.97;2.37;;;12.80;99.90;;;;;;5026421;28;20299;-64
2023/10/08 02:32:23;;;;;;;5.97;2.17;;;12.70;99.90;;;;;;5026350;28;20242;-64
2023/10/08 02:34:51;;;;;;;3.73;2.37;;;12.80;99.90;;;;;;5023958;28;20212;-64
2023/10/08 02:37:19;;;;;;;5.90;2.30;;;12.80;99.90;;;;;;5025287;28;20208;-66
2023/10/08 02:39:46;;;;;;;3.07;2.47;;;12.80;99.90;;;;;;5026242;28;20232;-64
2023/10/08 02:42:14;;;;;;;2.90;2.10;;;12.80;99.90;;;;;;5025369;28;20216;-64
2023/10/08 02:44:41;;;;;;;4.77;2.57;;;12.60;99.90;;;;;;5023595;28;20259;-64
2023/10/08 02:47:11;;;;;;;4.27;2.37;;;12.70;99.90;;;;;;5025951;28;20201;-65
2023/10/08 02:49:42;;;;;;;6.63;2.33;;;12.70;99.90;;;;;;5025775;28;20237;-64
2023/10/08 02:52:09;;;;;;;5.63;2.10;;;12.60;99.90;;;;;;5025692;28;20224;-64
2023/10/08 02:54:37;;;;;;;4.60;2.23;;;12.70;99.90;;;;;;5026023;28;20207;-64
2023/10/08 02:57:10;;;;;;;2.77;2.10;;;12.60;99.90;;;;;;5025732;28;20232;-68
2023/10/08 02:59:40;;;;;;;5.23;2.10;;;12.70;99.90;;;;;;5022948;28;20242;-64
2023/10/08 03:02:13;;;;;;;3.97;2.43;;;12.80;99.90;;;;;;5025786;28;20200;-65
2023/10/08 03:04:42;;;;;;;5.33;2.13;;;12.80;99.90;;;;;;5025941;28;20584;-65
2023/10/08 03:07:20;;;;;;;4.43;2.20;;;12.70;99.90;;;;;;5025806;28;20205;-65
2023/10/08 03:09:49;;;;;;;4.00;2.43;;;12.80;99.90;;;;;;5026393;28;20249;-64
2023/10/08 03:12:17;;;;;;;3.83;2.30;;;12.80;99.90;;;;;;5025348;28;20208;-65
2023/10/08 03:15:00;;;;;;;3.40;2.10;;;12.80;99.90;;;;;;5025916;28;20208;-64
2023/10/08 03:17:29;;;;;;;3.10;2.10;;;12.80;99.90;;;;;;5025807;28;20209;-64
2023/10/08 03:20:27;;;;;;;4.83;2.00;;;12.80;99.90;;;;;;5025794;28;20291;-65
2023/10/08 03:22:46;;;;;;;7.00;2.10;;;12.90;99.90;;;;;;5025043;28;20221;-65
2023/10/08 03:25:20;;;;;;;8.43;2.17;;;12.90;99.90;;;;;;5025912;28;20231;-65
2023/10/08 03:27:48;;;;;;;4.73;2.20;;;12.80;99.90;;;;;;5026038;28;20322;-65
2023/10/08 03:30:15;;;;;;;4.87;2.13;;;12.80;99.90;;;;;;5026035;28;20209;-65
2023/10/08 03:32:43;;;;;;;10.83;2.63;;;12.90;99.90;;;;;;5025253;28;20244;-64
2023/10/08 03:35:12;;;;;;;5.17;2.57;;;12.90;99.90;;;;;;5024450;28;20201;-65
2023/10/08 03:37:46;;;;;;;5.43;2.23;;;12.90;99.90;;;;;;5025391;28;20299;-65
2023/10/08 03:40:25;;;;;;;4.77;2.37;;;12.90;99.90;;;;;;5017715;28;20213;-65
2023/10/08 03:42:52;;;;;;;4.27;2.30;;;13.00;99.90;;;;;;5005502;28;20197;-65
2023/10/08 03:48:14;;;;;;;4.43;2.10;;;13.00;99.90;;;;;;5022729;28;20262;-64
2023/10/08 03:50:43;;;;;;;5.13;2.47;;;13.00;99.90;;;;;;5025219;28;20267;-65
2023/10/08 03:53:11;;;;;;;6.40;3.10;;;13.00;99.90;;;;;;5022431;28;20207;-65
2023/10/08 03:55:40;;;;;;;5.57;2.50;;;12.90;99.90;;;;;;5014407;28;20201;-65
2023/10/08 03:58:11;;;;;;;4.03;2.30;;;12.90;99.90;;;;;;5011248;28;20206;-65
2023/10/08 04:00:42;;;;;;;5.27;2.43;;;12.90;99.90;;;;;;5021324;28;20706;-65
2023/10/08 04:03:11;;;;;;;7.43;2.80;;;12.90;99.90;;;;;;5019141;28;20193;-65
2023/10/08 04:05:59;;;;;;;6.27;2.70;;;12.90;99.90;;;;;;5012794;28;20197;-65
2023/10/08 04:08:42;;;;;;;6.03;2.27;;;12.90;99.90;;;;;;5011018;28;20209;-65
2023/10/08 04:11:22;;;;;;;9.93;2.93;;;12.90;99.90;;;;;;5006379;28;20197;-66
2023/10/08 04:13:51;;;;;;;5.47;3.00;;;12.80;99.90;;;;;;5023611;28;20218;-65
2023/10/08 04:16:19;;;;;;;4.97;2.73;;;12.80;99.90;;;;;;5025010;28;20251;-65
2023/10/08 04:18:50;;;;;;;5.67;2.67;;;12.80;99.90;;;;;;5024606;28;20575;-65
2023/10/08 04:21:20;;;;;;;6.03;2.63;;;12.80;99.90;;;;;;5024860;28;20227;-65
2023/10/08 04:23:53;;;;;;;5.10;2.83;;;12.90;99.90;;;;;;5024820;28;20310;-65
2023/10/08 04:26:23;;;;;;;8.20;2.60;;;12.90;99.90;;;;;;5021906;28;20212;-65
2023/10/08 04:28:54;;;;;;;9.70;3.17;;;12.80;99.90;;;;;;5025297;28;20201;-65
2023/10/08 04:31:24;;;;;;;6.37;3.13;;;12.80;99.90;;;;;;5025466;28;20216;-65
2023/10/08 04:33:52;;;;;;;5.57;2.80;;;12.80;99.90;;;;;;5024127;28;20686;-65
2023/10/08 04:36:19;;;;;;;7.87;2.53;;;12.80;99.90;;;;;;5024693;28;20566;-65
2023/10/08 04:38:53;;;;;;;7.77;3.10;;;12.90;99.90;;;;;;5024647;28;20580;-65
2023/10/08 04:41:22;;;;;;;4.60;2.47;;;12.90;99.90;;;;;;5024703;28;20216;-65
2023/10/08 04:43:49;;;;;;;10.77;3.20;;;12.90;99.90;;;;;;5024815;28;20266;-65
2023/10/08 04:46:34;;;;;;;7.07;2.80;;;12.90;99.90;;;;;;5024406;28;20213;-65
2023/10/08 04:49:05;;;;;;;6.83;2.67;;;12.80;99.90;;;;;;5024554;28;20208;-65
2023/10/08 04:51:40;;;;;;;6.80;2.97;;;12.90;99.90;;;;;;5024648;28;20759;-65
2023/10/08 04:54:09;;;;;;;5.57;2.50;;;12.90;99.90;;;;;;5024514;28;20246;-65
2023/10/08 04:56:38;;;;;;;6.07;2.70;;;12.90;99.90;;;;;;5024551;28;20216;-66
2023/10/08 04:59:06;;;;;;;7.63;2.60;;;12.90;99.90;;;;;;5022273;28;20241;-65
2023/10/08 05:01:47;;;;;;;4.90;2.50;;;12.80;99.90;;;;;;5028060;28;20718;-65
2023/10/08 05:04:26;;;;;;;5.70;2.93;;;12.80;99.90;;;;;;5028127;28;20656;-65
2023/10/08 05:10:18;;;;;;;7.13;2.67;;;12.80;99.90;;;;;;5119717;27;21097;-65
2023/10/08 05:12:47;;;;;;;8.17;3.03;;;12.70;99.90;;;;;;5102507;28;20320;-65
2023/10/08 05:15:33;;;;;;;5.47;2.60;;;12.70;99.90;;;;;;5102370;28;20202;-65
2023/10/08 05:18:13;;;;;;;6.67;3.23;;;12.70;99.90;;;;;;5102021;28;20194;-65
2023/10/08 05:20:59;;;;;;;5.10;2.73;;;12.70;99.90;;;;;;5102695;28;20239;-65
2023/10/08 05:24:08;;;;;;;6.93;2.40;;;12.50;99.90;;;;;;5102688;28;20239;-65
2023/10/08 05:26:44;;;;;;;4.17;2.20;;;12.40;99.90;;;;;;5102250;28;20202;-64
2023/10/08 05:34:42;;;;;;;3.10;2.50;;;12.40;99.90;;;;;;5121651;28;20205;-64
2023/10/08 05:37:31;;;;;;;10.63;3.20;;;12.40;99.90;;;;;;5116840;28;20692;-65
2023/10/08 05:40:12;;;;;;;5.33;2.47;;;12.40;99.90;;;;;;5102778;28;20687;-65
2023/10/08 05:42:46;;;;;;;5.10;2.50;;;12.40;99.90;;;;;;5101947;28;20695;-65
2023/10/08 05:45:29;;;;;;;6.87;3.17;;;12.40;99.90;;;;;;5102116;28;20254;-65
2023/10/08 05:48:15;;;;;;;5.83;2.87;;;12.40;99.90;;;;;;5101791;28;20222;-65
2023/10/08 05:50:55;;;;;;;3.93;2.60;;;12.40;99.90;;;;;;5090834;28;20300;-65
2023/10/08 05:53:43;;;;;;;3.97;2.70;;;12.40;99.90;;;;;;5081548;28;20217;-65
2023/10/08 05:56:28;;;;;;;4.63;2.60;;;12.40;99.90;;;;;;5081252;28;20739;-65
2023/10/08 05:59:14;;;;;;;7.97;2.67;;;12.40;99.90;;;;;;5081835;28;20210;-65
2023/10/08 06:01:45;;;;;;;5.13;2.60;;;12.40;99.90;;;;;;5070187;28;20368;-65
2023/10/08 06:04:31;;;;;;;6.67;2.93;;;12.40;99.90;;;;;;5081250;28;20207;-65
2023/10/08 06:07:12;;;;;;;4.67;2.80;;;12.40;99.90;;;;;;5080979;28;20207;-65
2023/10/08 06:09:39;;;;;;;5.70;2.90;;;12.50;99.90;;;;;;5080853;28;20282;-65
2023/10/08 06:12:12;;;;;;;6.60;2.90;;;12.40;99.90;;;;;;5081105;28;20199;-65
2023/10/08 06:15:06;;;;;;;7.03;3.00;;;12.40;99.90;;;;;;5081344;28;20244;-65
2023/10/08 06:20:25;;;;;;;9.73;3.17;;;12.50;99.90;;;;;;5072978;28;20248;-65
2023/10/08 06:22:54;;;;;;;6.50;3.10;;;12.50;99.90;;;;;;5067420;28;20199;-64
2023/10/08 06:25:24;;;;;;;9.33;3.37;;;12.50;99.90;;;;;;5067311;28;20236;-64
2023/10/08 06:27:55;;;;;;;8.37;2.87;;;12.50;99.90;;;;;;5067062;28;20245;-65
2023/10/08 06:30:28;;;;;;;7.97;3.30;;;12.50;99.90;;;;;;5067331;28;20188;-64
2023/10/08 06:32:56;;;;;;;8.53;3.07;;;12.50;99.90;;;;;;5083393;28;20214;-64
2023/10/08 06:35:26;;;;;;;7.47;2.97;;;12.50;99.90;;;;;;5067605;28;20320;-64
2023/10/08 06:37:55;;;;;;;4.20;3.07;;;12.60;99.90;;;;;;5067425;28;20214;-64
2023/10/08 06:43:14;;;;;;;5.77;3.23;;;12.60;99.90;;;;;;5062476;28;20461;-66
2023/10/08 06:45:44;;;;;;;11.63;3.20;;;12.50;99.90;;;;;;5067092;28;20281;-65
2023/10/08 06:48:17;;;;;;;7.43;3.20;;;12.60;99.90;;;;;;5067024;28;20678;-65
2023/10/08 06:50:45;;;;;;;4.00;2.90;;;12.60;99.90;;;;;;5067273;28;20280;-65
2023/10/08 06:53:13;;;;;;;6.63;2.87;;;12.60;99.90;;;;;;5067072;28;20207;-65
2023/10/08 06:55:41;;;;;;;8.37;2.70;;;12.70;99.90;;;;;;5067006;28;20293;-65
2023/10/08 06:58:09;;;;;;;5.43;2.50;;;12.70;99.90;;;;;;5067095;28;20243;-65
2023/10/08 07:00:39;;;;;;;6.03;2.57;;;12.80;99.90;;;;;;5066414;28;20196;-65
2023/10/08 07:03:10;;;;;;;8.53;2.87;;;12.80;99.90;;;;;;5055403;28;20219;-65
2023/10/08 07:05:40;;;;;;;2.73;1.70;;;12.80;99.90;;;;;;5066654;28;20201;-65
2023/10/08 07:08:12;;;;;;;4.40;2.00;;;12.70;99.90;;;;;;5065929;28;20800;-66
2023/10/08 07:10:41;;;;;;;4.40;2.10;;;12.60;99.90;;;;;;5066675;28;20200;-67
2023/10/08 07:13:10;;;;;;;7.83;2.47;;;12.70;99.90;;;;;;5066904;28;20222;-65
2023/10/08 07:15:40;;;;;;;2.37;2.00;;;12.70;99.90;;;;;;5066590;28;20696;-66
2023/10/08 07:18:12;;;;;;;3.77;1.70;;;12.70;99.90;;;;;;5066106;28;20838;-65
2023/10/08 07:20:41;;;;;;;5.23;2.13;;;12.70;99.90;;;;;;5066880;28;20570;-65
2023/10/08 07:23:18;;;;;;;3.63;2.20;;;12.90;99.90;;;;;;5066607;28;20223;-65
2023/10/08 07:25:57;;;;;;;4.70;1.97;;;12.90;99.90;;;;;;5060821;28;20207;-65
2023/10/08 07:28:25;;;;;;;3.00;2.27;;;13.00;99.90;;;;;;5063362;28;20739;-65
2023/10/08 07:30:52;;;;;;;3.33;1.70;;;13.10;99.90;;;;;;5065864;28;20211;-65
2023/10/08 07:33:24;;;;;;;4.07;1.87;;;13.20;99.90;;;;;;5062418;28;20303;-65
2023/10/08 07:35:56;;;;;;;4.90;1.93;;;13.30;99.90;;;;;;5045712;28;20283;-65
2023/10/08 07:38:27;;;;;;;4.27;1.97;;;13.30;99.90;;;;;;5046122;28;20203;-65
2023/10/08 07:40:54;;;;;;;3.23;2.10;;;13.40;99.90;;;;;;5046092;28;20269;-65
2023/10/08 07:43:22;;;;;;;3.10;2.00;;;13.30;99.90;;;;;;5046217;28;20200;-65
2023/10/08 07:45:49;;;;;;;3.67;1.80;;;13.20;99.90;;;;;;5061654;28;20199;-65
2023/10/08 07:48:16;;;;;;;2.77;1.70;;;13.30;99.90;;;;;;5065733;28;20239;-65
2023/10/08 07:50:46;;;;;;;4.50;2.00;;;13.40;99.90;;;;;;5065925;28;20733;-65
2023/10/08 07:53:18;;;;;;;2.13;1.43;;;13.50;99.90;;;;;;5065558;28;20207;-65
2023/10/08 07:55:47;;;;;;;2.93;1.77;;;13.60;99.90;;;;;;5065660;28;20207;-65
2023/10/08 07:58:15;;;;;;;3.17;1.57;;;13.70;99.90;;;;;;5066101;28;20577;-65
2023/10/08 08:00:51;;;;;;;1.53;1.17;;;13.80;99.90;;;;;;5045633;28;20944;-65
2023/10/08 08:03:21;;;;;;;1.77;1.50;;;13.80;99.90;;;;;;5045915;28;20202;-65
2023/10/08 08:05:52;;;;;;;4.53;1.63;;;14.00;99.90;;;;;;5045826;28;20607;-66
2023/10/08 08:08:22;;;;;;;4.00;1.67;;;14.00;99.90;;;;;;5065680;28;20244;-65
2023/10/08 08:10:57;;;;;;;2.63;1.47;;;14.10;99.90;;;;;;5065584;28;20235;-66
2023/10/08 08:13:28;;;;;;;2.90;1.67;;;14.10;99.90;;;;;;5065919;28;20195;-66
2023/10/08 08:15:58;;;;;;;2.33;1.47;;;14.20;99.90;;;;;;5065386;28;20192;-66
2023/10/08 08:18:32;;;;;;;4.00;1.60;;;14.20;99.90;;;;;;5065060;28;20661;-66
2023/10/08 08:21:02;;;;;;;4.00;1.30;;;14.30;99.90;;;;;;5065282;28;20194;-66
2023/10/08 08:23:30;;;;;;;1.47;1.20;;;14.30;99.90;;;;;;5065182;28;20207;-66
2023/10/08 08:26:11;;;;;;;2.87;1.57;;;14.40;99.90;;;;;;5064844;28;20200;-66
2023/10/08 08:28:38;;;;;;;2.43;1.53;;;14.50;99.90;;;;;;5064859;28;21097;-66
2023/10/08 08:31:13;;;;;;;1.63;1.30;;;14.60;99.90;;;;;;5064865;28;20583;-66
2023/10/08 08:33:53;;;;;;;2.50;1.33;;;14.70;99.90;;;;;;5063861;28;20202;-66
2023/10/08 08:36:22;;;;;;;1.63;1.20;;;14.70;99.90;;;;;;5067497;28;20195;-66
2023/10/08 08:38:49;;;;;;;1.63;1.37;;;14.80;99.90;;;;;;5064361;28;20211;-66
2023/10/08 08:41:18;;;;;;;0.90;0.90;;;14.80;99.90;;;;;;5080013;28;20824;-66
2023/10/08 08:43:48;;;;;;;4.03;1.60;;;14.90;99.90;;;;;;5064684;28;20306;-66
2023/10/08 08:46:15;;;;;;;4.57;1.00;;;15.00;99.90;;;;;;5064870;28;20196;-66
2023/10/08 08:48:44;;;;;;;1.40;1.30;;;15.00;99.90;;;;;;5064695;28;20211;-66
2023/10/08 08:51:11;;;;;;;1.23;1.10;;;15.10;99.90;;;;;;5065073;28;20238;-66
2023/10/08 08:53:42;;;;;;;1.37;1.10;;;15.10;99.90;;;;;;5064901;28;20312;-66
2023/10/08 08:56:09;;;;;;;1.57;0.93;;;15.00;99.90;;;;;;5064571;28;20218;-66
2023/10/08 08:58:37;;;;;;;1.73;1.23;;;15.00;99.90;;;;;;5064742;28;20318;-65
2023/10/08 09:01:07;;;;;;;1.20;0.90;;;14.90;99.90;;;;;;5064779;28;20216;-66
2023/10/08 09:03:37;;;;;;;2.53;1.20;;;14.90;99.90;;;;;;5064562;28;20213;-66
2023/10/08 09:06:04;;;;;;;2.73;0.60;;;15.00;99.90;;;;;;5064414;28;20214;-65
2023/10/08 09:08:35;;;;;;;1.27;0.80;;;15.10;99.90;;;;;;5064408;28;20234;-65
2023/10/08 09:11:04;;;;;;;2.90;1.10;;;15.30;99.90;;;;;;5059318;28;20265;-65
2023/10/08 09:13:32;;;;;;;1.43;0.80;;;15.40;99.90;;;;;;5042990;28;20214;-65
2023/10/08 09:16:07;;;;;;;2.47;1.10;;;15.50;99.90;;;;;;5062933;28;20570;-65
2023/10/08 09:18:34;;;;;;;1.10;1.00;;;15.60;99.90;;;;;;5063278;28;20202;-65
2023/10/08 09:21:15;;;;;;;1.90;1.27;;;15.70;99.90;;;;;;5062807;28;20333;-65
2023/10/08 09:23:44;;;;;;;1.30;1.03;;;15.70;99.90;;;;;;5062774;28;20203;-65
2023/10/08 09:26:13;;;;;;;3.60;1.43;;;15.70;99.90;;;;;;5068914;28;20199;-65
2023/10/08 09:28:42;;;;;;;1.60;1.20;;;15.70;99.90;;;;;;5082211;28;20213;-65
2023/10/08 09:31:12;;;;;;;1.27;0.90;;;15.70;99.90;;;;;;5064839;28;20203;-65
2023/10/08 09:33:40;;;;;;;1.13;1.00;;;15.80;99.90;;;;;;5062974;28;20578;-65
2023/10/08 09:36:10;;;;;;;2.93;1.10;;;15.80;99.90;;;;;;5062608;28;20674;-65
2023/10/08 09:38:37;;;;;;;1.10;0.70;;;15.70;99.90;;;;;;5063106;28;20716;-65
2023/10/08 09:41:08;;;;;;;1.17;0.90;;;15.80;99.90;;;;;;5063154;28;20219;-66
2023/10/08 09:43:38;;;;;;;1.60;0.60;;;15.70;99.90;;;;;;5062714;28;20195;-65
2023/10/08 09:46:14;;;;;;;0.80;0.80;;;15.80;99.90;;;;;;5062501;28;20302;-65
2023/10/08 09:48:45;;;;;;;0.80;0.80;;;15.80;99.90;;;;;;5062182;28;20666;-65
2023/10/08 09:51:12;;;;;;;0.60;0.57;;;15.80;99.90;;;;;;5062732;28;20270;-66
2023/10/08 09:53:53;;;;;;;0.60;0.57;;;15.80;99.90;;;;;;5062698;28;20533;-65
2023/10/08 09:56:21;;;;;;;0.50;0.50;;;16.00;99.90;;;;;;5065639;28;20875;-65
2023/10/08 09:58:51;;;;;;;1.53;0.67;;;16.00;99.90;;;;;;5066083;28;20229;-65
2023/10/08 10:01:22;;;;;;;0.70;0.70;;;16.10;99.90;;;;;;5066605;28;20924;-66
2023/10/08 10:03:49;;;;;;;1.20;0.80;;;16.20;99.90;;;;;;5066166;28;20762;-65
2023/10/08 10:06:18;;;;;;;2.67;1.00;;;16.40;99.90;;;;;;5066235;28;20199;-65
2023/10/08 10:08:46;;;;;;;1.67;0.70;;;16.50;99.90;;;;;;5065812;28;20235;-66
2023/10/08 10:11:13;;;;;;;0.67;0.60;;;16.60;99.90;;;;;;5072888;28;20323;-65
2023/10/08 10:13:42;;;;;;;0.70;0.70;;;16.70;99.90;;;;;;5086236;28;20230;-66
2023/10/08 10:16:13;;;;;;;1.23;0.77;;;16.80;99.90;;;;;;5066030;28;20648;-66
2023/10/08 10:18:40;;;;;;;1.03;0.80;;;16.70;99.90;;;;;;5063492;28;20774;-66
2023/10/08 10:21:27;;;;;;;1.87;0.73;;;16.60;99.90;;;;;;5066432;28;20295;-65
2023/10/08 10:23:54;;;;;;;2.80;0.77;;;16.80;99.90;;;;;;5065600;28;20657;-66
2023/10/08 10:26:28;;;;;;;0.50;0.50;;;17.10;99.90;;;;;;5066167;28;20203;-66
2023/10/08 10:29:25;;;;;;;1.70;0.60;;;17.40;99.90;;;;;;5065742;28;20192;-66
2023/10/08 10:31:56;;;;;;;1.60;0.60;;;17.60;99.90;;;;;;5065921;28;20203;-66
2023/10/08 10:34:27;;;;;;;2.93;0.90;;;17.80;99.90;;;;;;5066164;28;20277;-66
2023/10/08 10:37:02;;;;;;;2.20;0.70;;;17.90;99.90;;;;;;5065913;28;20637;-66
2023/10/08 10:39:31;;;;;;;1.30;0.70;;;17.90;99.90;;;;;;5065693;28;20199;-65
2023/10/08 10:42:02;;;;;;;1.07;0.63;;;17.80;99.90;;;;;;5065897;28;20297;-66
2023/10/08 10:44:30;;;;;;;0.93;0.70;;;17.60;99.90;;;;;;5065751;28;20204;-66
2023/10/08 10:49:52;;;;;;;2.30;0.80;;;17.80;99.90;;;;;;5039969;28;20365;-66
2023/10/08 10:52:31;;;;;;;0.63;0.60;;;17.70;99.20;;;;;;5045521;28;20192;-65
2023/10/08 10:54:59;;;;;;;1.33;0.80;;;17.80;99.70;;;;;;5054122;28;20310;-66
2023/10/08 10:57:34;;;;;;;0.63;0.57;;;17.90;98.70;;;;;;5065516;28;20218;-66
2023/10/08 11:00:18;;;;;;;1.43;0.57;;;17.90;98.10;;;;;;5065267;28;20203;-65
2023/10/08 11:02:48;;;;;;;0.70;0.70;;;17.90;97.30;;;;;;5083313;28;20219;-66
2023/10/08 11:05:19;;;;;;;0.50;0.50;;;17.80;97.30;;;;;;5085786;28;20195;-65
2023/10/08 11:07:47;;;;;;;0.50;0.50;;;17.90;98.40;;;;;;5069522;28;20195;-66
2023/10/08 11:10:15;;;;;;;1.50;0.67;;;18.00;97.90;;;;;;5065306;28;20223;-66
2023/10/08 11:12:46;;;;;;;1.80;0.60;;;18.00;97.70;;;;;;5065174;28;20227;-66
2023/10/08 11:15:15;;;;;;;0.63;0.63;;;18.10;97.80;;;;;;5065075;28;20736;-65
2023/10/08 11:17:43;;;;;;;1.37;1.00;;;18.40;98.30;;;;;;5064681;28;20207;-65
2023/10/08 11:20:26;;;;;;;2.00;0.93;;;18.70;98.60;;;;;;5064611;28;20204;-66
2023/10/08 11:22:54;;;;;;;1.43;0.80;;;18.80;97.60;;;;;;5065172;28;20195;-66
2023/10/08 11:25:27;;;;;;;1.03;0.70;;;18.90;96.70;;;;;;5064339;28;20203;-66
2023/10/08 11:28:01;;;;;;;0.80;0.80;;;19.10;96.40;;;;;;5065202;28;20218;-66
2023/10/08 11:30:30;;;;;;;1.20;1.10;;;19.10;97.20;;;;;;5064798;28;20899;-66
2023/10/08 11:32:59;;;;;;;2.00;0.80;;;18.90;96.20;;;;;;5063358;28;20342;-66
2023/10/08 11:35:28;;;;;;;0.87;0.87;;;18.60;95.70;;;;;;5065020;28;20211;-65
2023/10/08 11:38:00;;;;;;;0.60;0.60;;;18.50;96.40;;;;;;5064365;28;20212;-66
2023/10/08 11:40:29;;;;;;;0.80;0.80;;;18.70;96.40;;;;;;5064502;28;20195;-66
2023/10/08 11:42:58;;;;;;;3.00;0.67;;;18.70;96.00;;;;;;5063915;28;20207;-66
2023/10/08 11:45:26;;;;;;;0.90;0.73;;;18.90;96.40;;;;;;5064446;28;20302;-66
2023/10/08 11:47:56;;;;;;;1.33;0.80;;;19.20;97.00;;;;;;5063809;28;20269;-66
2023/10/08 11:50:31;;;;;;;0.87;0.70;;;19.30;95.60;;;;;;5064045;28;20243;-66
2023/10/08 11:53:02;;;;;;;1.40;0.90;;;19.20;95.60;;;;;;5063706;28;20206;-66
2023/10/08 11:55:34;;;;;;;1.03;1.00;;;19.20;95.30;;;;;;5063881;28;20271;-66
2023/10/08 11:58:09;;;;;;;2.00;0.80;;;19.30;96.30;;;;;;5064144;28;20202;-66
2023/10/08 12:00:43;;;;;;;1.07;0.60;;;19.30;95.40;;;;;;5063930;28;20199;-66
2023/10/08 12:03:12;;;;;;;0.60;0.60;;;19.00;95.50;;;;;;5043452;28;20444;-66
2023/10/08 12:05:47;;;;;;;1.40;1.00;;;19.20;96.40;;;;;;5043247;28;20200;-66
2023/10/08 12:08:16;;;;;;;2.17;0.90;;;19.30;96.80;;;;;;5053340;28;20321;-66
2023/10/08 12:10:45;;;;;;;1.03;0.63;;;19.30;96.90;;;;;;5065497;28;20314;-66
2023/10/08 12:13:12;;;;;;;1.10;0.83;;;19.60;97.00;;;;;;5063810;28;20565;-66
2023/10/08 12:15:41;;;;;;;1.13;0.83;;;19.80;97.00;;;;;;5063584;28;20214;-66
2023/10/08 12:18:15;;;;;;;0.90;0.60;;;20.20;96.60;;;;;;5062645;28;20294;-66
2023/10/08 12:20:46;;;;;;;0.68;0.63;;;20.50;95.50;;;;;;5063302;28;20226;-66
2023/10/08 12:23:23;;;;;;;6.68;6.07;;;20.60;94.90;;;;;;5063044;28;20192;-66
2023/10/08 12:25:51;;;;;;;1.03;0.97;;;20.60;94.90;;;;;;5063432;28;20210;-66
2023/10/08 12:28:18;;;;;;;0.80;0.80;;;20.40;94.90;;;;;;5063867;28;20261;-66
2023/10/08 12:30:46;;;;;;;1.58;0.90;;;20.20;94.60;;;;;;5063602;28;20774;-66
2023/10/08 12:33:15;;;;;;;1.48;1.15;;;19.80;94.80;;;;;;5062930;28;20733;-64
2023/10/08 12:35:45;;;;;;;0.85;0.85;;;19.70;94.00;;;;;;5063359;28;20214;-66
2023/10/08 12:38:13;;;;;;;0.90;0.77;;;19.80;94.50;;;;;;5063258;28;20207;-64
2023/10/08 12:40:52;;;;;;;1.43;0.80;;;19.90;94.60;;;;;;5062932;28;20955;-64
2023/10/08 12:43:20;;;;;;;1.83;1.10;;;19.90;93.70;;;;;;5063125;28;20282;-64
2023/10/08 12:45:51;;;;;;;2.13;0.87;;;20.10;94.40;;;;;;5062778;28;20219;-64
2023/10/08 12:48:20;;;;;;;1.13;1.02;;;20.40;94.60;;;;;;5062318;28;20234;-64
2023/10/08 12:50:53;;;;;;;1.25;0.80;;;20.80;94.70;;;;;;5064368;28;20235;-64
2023/10/08 12:53:26;;;;;;;3.28;1.27;;;21.00;93.10;;;;;;5062420;28;20673;-64
2023/10/08 12:55:54;;;;;;;2.55;1.70;;;21.20;93.10;;;;;;5061717;28;20200;-65
2023/10/08 12:58:25;;;;;;;0.95;0.93;;;21.30;93.60;;;;;;5062375;28;20638;-64
2023/10/08 13:00:57;;;;;;;0.88;0.88;;;21.50;93.30;;;;;;5063839;28;20204;-64
2023/10/08 13:03:25;;;;;;;2.55;0.95;;;21.80;92.80;;;;;;5063986;28;20187;-65
2023/10/08 13:05:54;;;;;;;0.80;0.80;;;22.00;92.30;;;;;;5064196;28;20290;-65
2023/10/08 13:08:21;;;;;;;1.52;0.90;;;22.00;91.60;;;;;;5063755;28;20235;-65
2023/10/08 13:10:48;;;;;;;1.02;0.80;;;22.00;91.40;;;;;;5063719;28;20865;-64
2023/10/08 13:13:15;;;;;;;0.80;0.80;;;22.20;91.50;;;;;;5064611;28;20199;-64
2023/10/08 13:15:42;;;;;;;1.20;1.10;;;22.40;91.70;;;;;;5063994;28;20697;-64
2023/10/08 13:18:10;;;;;;;2.83;0.85;;;22.60;91.70;;;;;;5064227;28;20249;-65
2023/10/08 13:20:37;;;;;;;0.80;0.70;;;22.50;90.80;;;;;;5064037;28;20214;-64
2023/10/08 13:23:06;;;;;;;0.93;0.93;;;22.60;90.00;;;;;;5064395;28;20218;-65
2023/10/08 13:25:36;;;;;;;2.20;0.90;;;22.70;90.00;;;;;;5064286;28;20640;-64
2023/10/08 13:28:03;;;;;;;1.10;0.73;;;22.60;88.70;;;;;;5064474;28;20195;-65